createdAt,value
2018-11-21T00:02:19.160Z,51.40
2018-11-21T00:04:47.888Z,50.17
2018-11-21T00:07:16.488Z,48.03
2018-11-21T00:09:44.971Z,53.53
2018-11-21T00:12:13.486Z,55.63
2018-11-21T00:14:42.042Z,55.77
2018-11-21T00:17:10.721Z,44.27
2018-11-21T00:19:39.193Z,53.00
2018-11-21T00:22:07.792Z,62.43
2018-11-21T00:24:36.319Z,42.53
2018-11-21T00:27:04.937Z,51.80
2018-11-21T00:29:33.406Z,60.83
2018-11-21T00:32:03.142Z,58.33
2018-11-21T00:34:32.766Z,55.87
2018-11-21T00:37:02.679Z,55.50
2018-11-21T00:39:31.046Z,52.67
2018-11-21T00:41:59.998Z,50.80
2018-11-21T00:44:28.485Z,57.03
2018-11-21T00:46:57.124Z,46.67
2018-11-21T00:49:25.654Z,46.20
2018-11-21T00:51:54.163Z,53.87
2018-11-21T00:54:23.225Z,43.87
2018-11-21T00:56:51.634Z,53.57
2018-11-21T00:59:20.179Z,52.00
2018-11-21T01:01:48.703Z,54.70
2018-11-21T01:04:17.393Z,63.07
2018-11-21T01:06:46.306Z,46.30
2018-11-21T01:09:14.766Z,51.40
2018-11-21T01:11:43.332Z,59.60
2018-11-21T01:14:11.930Z,50.53
2018-11-21T01:16:49.450Z,52.23
2018-11-21T01:19:21.603Z,48.40
2018-11-21T01:21:50.085Z,51.40
2018-11-21T01:24:18.719Z,47.53
2018-11-21T01:26:47.303Z,54.07
2018-11-21T01:29:15.881Z,44.93
2018-11-21T01:31:44.960Z,53.87
2018-11-21T01:34:13.837Z,60.40
2018-11-21T01:36:42.498Z,53.20
2018-11-21T01:39:11.569Z,55.30
2018-11-21T01:41:40.651Z,64.60
2018-11-21T01:44:10.523Z,57.07
2018-11-21T01:46:39.048Z,53.37
2018-11-21T01:49:08.500Z,65.60
2018-11-21T01:51:37.000Z,45.47
2018-11-21T01:54:05.878Z,59.03
2018-11-21T01:56:34.531Z,47.00
2018-11-21T01:59:03.214Z,48.17
2018-11-21T02:01:31.917Z,57.13
2018-11-21T02:04:00.377Z,51.93
2018-11-21T02:06:28.867Z,47.73
2018-11-21T02:08:57.522Z,52.60
2018-11-21T02:11:26.076Z,41.17
2018-11-21T02:13:54.663Z,55.00
2018-11-21T02:16:23.363Z,54.40
2018-11-21T02:18:51.726Z,55.07
2018-11-21T02:21:20.338Z,51.03
2018-11-21T02:23:48.838Z,35.90
2018-11-21T02:26:17.375Z,58.53
2018-11-21T02:28:45.900Z,47.73
2018-11-21T02:31:15.322Z,55.87
2018-11-21T02:33:43.712Z,59.93
2018-11-21T02:36:14.588Z,44.87
2018-11-21T02:38:43.202Z,40.73
2018-11-21T02:41:12.785Z,47.30
2018-11-21T02:43:41.236Z,56.47
2018-11-21T02:46:09.820Z,49.53
2018-11-21T02:48:38.389Z,53.53
2018-11-21T02:51:07.149Z,51.83
2018-11-21T02:53:35.887Z,50.43
2018-11-21T02:56:04.322Z,44.53
2018-11-21T02:58:32.960Z,54.47
2018-11-21T03:01:01.347Z,53.20
2018-11-21T03:03:29.875Z,53.17
2018-11-21T03:05:58.373Z,56.57
2018-11-21T03:08:26.939Z,50.67
2018-11-21T03:10:55.384Z,56.43
2018-11-21T03:13:28.358Z,53.57
2018-11-21T03:15:52.563Z,48.60
2018-11-21T03:18:21.035Z,48.83
2018-11-21T03:20:49.620Z,45.27
2018-11-21T03:23:18.117Z,48.90
2018-11-21T03:25:46.553Z,45.60
2018-11-21T03:28:15.447Z,41.80
2018-11-21T03:30:44.451Z,47.63
2018-11-21T03:33:12.995Z,42.30
2018-11-21T03:35:41.580Z,46.90
2018-11-21T03:38:10.350Z,48.13
2018-11-21T03:40:38.914Z,41.57
2018-11-21T03:43:07.467Z,44.23
2018-11-21T03:45:36.098Z,53.07
2018-11-21T03:48:04.969Z,57.13
2018-11-21T03:50:34.037Z,44.73
2018-11-21T03:53:02.533Z,44.03
2018-11-21T03:55:31.094Z,51.57
2018-11-21T03:57:59.696Z,47.10
2018-11-21T04:00:28.227Z,47.23
2018-11-21T04:02:56.687Z,47.10
2018-11-21T04:05:25.261Z,50.87
2018-11-21T04:07:53.810Z,53.07
2018-11-21T04:10:22.425Z,47.40
2018-11-21T04:12:50.909Z,48.43
2018-11-21T04:15:19.645Z,54.47
2018-11-21T04:17:48.111Z,51.33
2018-11-21T04:20:16.673Z,50.57
2018-11-21T04:22:45.148Z,39.80
2018-11-21T04:25:13.642Z,49.13
2018-11-21T04:27:42.252Z,55.50
2018-11-21T04:30:13.054Z,51.67
2018-11-21T04:32:41.836Z,58.27
2018-11-21T04:35:10.292Z,59.87
2018-11-21T04:37:38.967Z,62.87
2018-11-21T04:40:08.112Z,50.47
2018-11-21T04:42:36.911Z,61.00
2018-11-21T04:45:06.905Z,57.70
2018-11-21T04:47:35.720Z,62.67
2018-11-21T04:50:04.507Z,56.93
2018-11-21T04:52:33.178Z,62.03
2018-11-21T04:55:01.685Z,56.53
2018-11-21T04:57:30.207Z,57.70
2018-11-21T04:59:58.800Z,54.20
2018-11-21T05:02:27.302Z,67.00
2018-11-21T05:04:56.152Z,54.57
2018-11-21T05:07:25.814Z,61.27
2018-11-21T05:09:54.447Z,62.43
2018-11-21T05:12:22.965Z,62.70
2018-11-21T05:14:51.327Z,61.97
2018-11-21T05:17:19.821Z,60.60
2018-11-21T05:19:48.374Z,63.23
2018-11-21T05:22:18.953Z,55.27
2018-11-21T05:24:47.895Z,60.37
2018-11-21T05:27:16.515Z,55.73
2018-11-21T05:29:45.131Z,56.83
2018-11-21T05:32:13.890Z,58.03
2018-11-21T05:34:42.281Z,63.40
2018-11-21T05:37:10.866Z,54.07
2018-11-21T05:39:40.251Z,63.90
2018-11-21T05:42:14.932Z,57.03
2018-11-21T05:44:45.561Z,58.03
2018-11-21T05:47:14.188Z,60.93
2018-11-21T05:49:42.779Z,58.47
2018-11-21T05:52:11.471Z,52.60
2018-11-21T05:54:39.902Z,50.13
2018-11-21T05:57:08.401Z,55.20
2018-11-21T05:59:36.852Z,55.50
2018-11-21T06:02:05.424Z,53.37
2018-11-21T06:04:33.971Z,52.37
2018-11-21T06:07:02.622Z,55.97
2018-11-21T06:09:31.139Z,56.50
2018-11-21T06:12:04.236Z,57.53
2018-11-21T06:14:28.385Z,44.27
2018-11-21T06:16:57.002Z,48.07
2018-11-21T06:19:25.576Z,48.23
2018-11-21T06:21:54.065Z,50.40
2018-11-21T06:24:22.602Z,47.37
2018-11-21T06:26:54.786Z,46.90
2018-11-21T06:29:23.231Z,48.57
2018-11-21T06:31:52.323Z,46.90
2018-11-21T06:34:20.886Z,52.80
2018-11-21T06:36:49.840Z,51.73
2018-11-21T06:39:19.117Z,50.43
2018-11-21T06:41:47.928Z,55.80
2018-11-21T06:44:16.502Z,49.77
2018-11-21T06:46:45.211Z,50.90
2018-11-21T06:49:14.204Z,63.73
2018-11-21T06:51:42.634Z,47.67
2018-11-21T06:54:12.993Z,63.23
2018-11-21T06:56:41.664Z,71.63
2018-11-21T06:59:10.278Z,55.40
2018-11-21T07:01:38.811Z,59.40
2018-11-21T07:04:07.387Z,46.20
2018-11-21T07:06:35.924Z,47.50
2018-11-21T07:09:07.797Z,59.33
2018-11-21T07:11:36.470Z,55.37
2018-11-21T07:14:07.218Z,59.83
2018-11-21T07:16:35.465Z,54.10
2018-11-21T07:19:03.962Z,50.20
2018-11-21T07:21:32.542Z,47.50
2018-11-21T07:24:02.049Z,55.03
2018-11-21T07:26:30.579Z,38.10
2018-11-21T07:28:59.162Z,55.90
2018-11-21T07:31:28.047Z,54.60
2018-11-21T07:33:56.651Z,49.60
2018-11-21T07:36:25.165Z,50.13
2018-11-21T07:38:54.414Z,52.93
2018-11-21T07:41:23.044Z,54.80
2018-11-21T07:43:51.518Z,51.10
2018-11-21T07:46:20.444Z,47.63
2018-11-21T07:48:51.405Z,54.00
2018-11-21T07:51:20.211Z,41.17
2018-11-21T07:53:48.683Z,49.93
2018-11-21T07:56:51.088Z,48.90
2018-11-21T07:59:19.662Z,45.90
2018-11-21T08:01:56.279Z,51.13
2018-11-21T08:04:33.138Z,48.60
2018-11-21T08:07:08.207Z,43.60
2018-11-21T08:09:51.521Z,44.83
2018-11-21T08:12:31.290Z,45.83
2018-11-21T08:15:19.337Z,43.07
2018-11-21T08:18:00.326Z,40.83
2018-11-21T08:20:43.219Z,42.43
2018-11-21T08:23:26.059Z,36.10
2018-11-21T08:26:01.196Z,43.47
2018-11-21T08:28:30.990Z,24.20
2018-11-21T08:30:59.955Z,40.33
2018-11-21T08:33:33.797Z,45.13
2018-11-21T08:35:57.825Z,39.20
2018-11-21T08:38:26.448Z,28.30
2018-11-21T08:40:54.995Z,28.30
2018-11-21T08:43:23.647Z,40.47
2018-11-21T08:45:52.183Z,36.80
2018-11-21T08:48:21.541Z,38.70
2018-11-21T08:50:49.979Z,41.07
2018-11-21T08:53:18.526Z,31.30
2018-11-21T08:55:47.214Z,46.03
2018-11-21T08:58:15.740Z,39.40
2018-11-21T09:00:44.495Z,43.10
2018-11-21T09:03:13.309Z,41.50
2018-11-21T09:05:42.421Z,45.10
2018-11-21T09:08:10.995Z,39.90
2018-11-21T09:10:39.511Z,42.67
2018-11-21T09:13:08.069Z,39.77
2018-11-21T09:15:36.617Z,23.87
2018-11-21T09:18:05.342Z,42.90
2018-11-21T09:20:34.541Z,41.13
2018-11-21T09:23:03.374Z,37.00
2018-11-21T09:25:32.389Z,40.80
2018-11-21T09:28:00.937Z,39.60
2018-11-21T09:30:30.093Z,39.03
2018-11-21T09:32:59.400Z,40.37
2018-11-21T09:35:27.876Z,44.97
2018-11-21T09:37:56.642Z,35.80
2018-11-21T09:40:25.356Z,35.17
2018-11-21T09:42:55.259Z,33.20
2018-11-21T09:45:24.579Z,34.73
2018-11-21T09:47:53.192Z,36.13
2018-11-21T09:50:23.983Z,42.93
2018-11-21T09:52:52.647Z,33.60
2018-11-21T09:55:21.184Z,31.67
2018-11-21T09:57:49.749Z,35.10
2018-11-21T10:00:48.411Z,30.03
2018-11-21T10:03:20.188Z,34.37
2018-11-21T10:05:51.801Z,39.77
2018-11-21T10:08:37.759Z,32.47
2018-11-21T10:11:06.857Z,32.57
2018-11-21T10:13:35.531Z,35.13
2018-11-21T10:16:05.333Z,35.37
2018-11-21T10:18:34.903Z,36.73
2018-11-21T10:21:03.795Z,37.70
2018-11-21T10:23:32.652Z,33.20
2018-11-21T10:26:01.237Z,35.10
2018-11-21T10:28:29.930Z,29.20
2018-11-21T10:30:59.181Z,33.90
2018-11-21T10:33:27.819Z,34.83
2018-11-21T10:35:56.270Z,33.97
2018-11-21T10:38:24.767Z,38.37
2018-11-21T10:40:53.242Z,33.10
2018-11-21T10:43:21.785Z,26.10
2018-11-21T10:45:50.595Z,39.23
2018-11-21T10:48:19.118Z,27.23
2018-11-21T10:50:47.768Z,39.20
2018-11-21T10:53:16.458Z,35.17
2018-11-21T10:55:45.009Z,29.40
2018-11-21T10:58:13.490Z,46.93
2018-11-21T11:01:00.177Z,34.33
2018-11-21T11:03:42.148Z,34.33
2018-11-21T11:06:25.067Z,36.77
2018-11-21T11:09:12.610Z,36.00
2018-11-21T11:11:55.588Z,29.83
2018-11-21T11:14:34.944Z,37.10
2018-11-21T11:17:18.900Z,34.67
2018-11-21T11:20:01.692Z,32.87
2018-11-21T11:22:44.497Z,36.37
2018-11-21T11:25:27.196Z,31.60
2018-11-21T11:28:10.299Z,36.13
2018-11-21T11:30:48.909Z,35.87
2018-11-21T11:33:39.684Z,26.67
2018-11-21T11:36:22.429Z,35.53
2018-11-21T11:39:05.595Z,35.33
2018-11-21T11:41:48.317Z,31.00
2018-11-21T11:44:31.050Z,25.07
2018-11-21T11:47:18.489Z,32.83
2018-11-21T11:50:01.271Z,35.97
2018-11-21T11:52:44.497Z,29.83
2018-11-21T11:55:24.766Z,34.20
2018-11-21T11:58:08.193Z,31.77
2018-11-21T12:00:57.499Z,32.30
2018-11-21T12:03:43.926Z,28.60
2018-11-21T12:06:27.077Z,31.73
2018-11-21T12:09:07.890Z,26.47
2018-11-21T12:11:50.037Z,31.17
2018-11-21T12:14:32.986Z,27.27
2018-11-21T12:17:19.493Z,39.20
2018-11-21T12:20:09.436Z,26.83
2018-11-21T12:22:52.724Z,28.83
2018-11-21T12:25:40.369Z,29.17
2018-11-21T12:28:28.267Z,30.67
2018-11-21T12:31:10.497Z,30.77
2018-11-21T12:33:49.926Z,24.17
2018-11-21T12:36:37.706Z,25.20
2018-11-21T12:39:23.486Z,27.47
2018-11-21T12:42:06.684Z,24.37
2018-11-21T12:44:54.265Z,30.90
2018-11-21T12:47:33.608Z,23.00
2018-11-21T12:50:16.580Z,25.47
2018-11-21T12:53:02.167Z,30.87
2018-11-21T12:55:50.025Z,27.37
2018-11-21T12:58:30.001Z,25.10
2018-11-21T13:01:17.551Z,22.70
2018-11-21T13:04:00.223Z,31.27
2018-11-21T13:06:35.038Z,31.80
2018-11-21T13:09:25.210Z,37.37
2018-11-21T13:12:14.022Z,32.23
2018-11-21T13:14:49.089Z,27.90
2018-11-21T13:17:29.187Z,25.70
2018-11-21T13:20:19.892Z,31.43
2018-11-21T13:23:02.573Z,30.10
2018-11-21T13:25:50.301Z,38.57
2018-11-21T13:28:32.902Z,31.90
2018-11-21T13:31:15.831Z,27.77
2018-11-21T13:33:58.759Z,23.70
2018-11-21T13:36:41.501Z,30.53
2018-11-21T13:39:26.441Z,21.07
2018-11-21T13:42:08.283Z,35.60
2018-11-21T13:44:46.312Z,34.83
2018-11-21T13:47:29.059Z,40.23
2018-11-21T13:50:12.997Z,28.13
2018-11-21T13:52:55.723Z,32.80
2018-11-21T13:55:24.220Z,31.40
2018-11-21T13:57:52.822Z,42.90
2018-11-21T14:00:21.390Z,30.70
2018-11-21T14:02:49.902Z,32.40
2018-11-21T14:05:18.854Z,32.33
2018-11-21T14:07:47.948Z,37.33
2018-11-21T14:10:16.528Z,23.13
2018-11-21T14:12:46.875Z,30.77
2018-11-21T14:15:15.627Z,31.73
2018-11-21T14:17:44.304Z,36.23
2018-11-21T14:20:13.922Z,35.13
2018-11-21T14:22:42.695Z,38.30
2018-11-21T14:25:12.068Z,34.30
2018-11-21T14:27:40.989Z,38.87
2018-11-21T14:30:13.827Z,26.93
2018-11-21T14:32:43.369Z,26.97
2018-11-21T14:35:13.542Z,32.00
2018-11-21T14:37:42.801Z,28.23
2018-11-21T14:40:14.144Z,25.93
2018-11-21T14:42:42.800Z,29.10
2018-11-21T14:45:18.746Z,34.20
2018-11-21T14:47:49.542Z,25.53
2018-11-21T14:50:22.048Z,30.13
2018-11-21T14:52:50.779Z,29.33
2018-11-21T14:55:19.359Z,40.37
2018-11-21T14:57:48.103Z,30.70
2018-11-21T15:00:18.480Z,30.00
2018-11-21T15:02:47.010Z,25.97
2018-11-21T15:05:16.153Z,32.63
2018-11-21T15:07:46.426Z,31.80
2018-11-21T15:10:15.460Z,26.97
2018-11-21T15:12:44.001Z,26.27
2018-11-21T15:15:15.569Z,24.73
2018-11-21T15:17:44.218Z,27.03
2018-11-21T15:20:16.315Z,20.47
2018-11-21T15:22:45.328Z,31.97
2018-11-21T15:25:16.587Z,29.80
2018-11-21T15:27:46.461Z,33.83
2018-11-21T15:30:18.286Z,23.07
2018-11-21T15:32:46.959Z,31.10
2018-11-21T15:35:15.439Z,35.10
2018-11-21T15:37:44.356Z,39.30
2018-11-21T15:40:15.930Z,37.57
2018-11-21T15:42:44.585Z,42.90
2018-11-21T15:45:16.653Z,31.80
2018-11-21T15:47:48.293Z,39.13
2018-11-21T15:50:17.813Z,43.83
2018-11-21T15:52:52.681Z,56.93
2018-11-21T15:55:16.275Z,49.30
2018-11-21T15:57:44.742Z,46.30
2018-11-21T16:00:15.345Z,45.90
2018-11-21T16:02:47.761Z,43.53
2018-11-21T16:05:17.898Z,47.90
2018-11-21T16:07:47.298Z,48.17
2018-11-21T16:10:18.880Z,46.07
2018-11-21T16:12:46.379Z,56.10
2018-11-21T16:15:18.281Z,57.53
2018-11-21T16:17:47.049Z,67.17
2018-11-21T16:20:16.686Z,67.17
2018-11-21T16:22:45.300Z,65.90
2018-11-21T16:25:15.833Z,58.00
2018-11-21T16:27:45.026Z,69.40
2018-11-21T16:30:16.063Z,64.73
2018-11-21T16:32:45.587Z,64.97
2018-11-21T16:35:14.442Z,70.13
2018-11-21T16:37:44.690Z,58.10
2018-11-21T16:40:17.103Z,62.13
2018-11-21T16:42:45.971Z,57.77
2018-11-21T16:45:27.772Z,58.63
2018-11-21T16:47:57.230Z,72.40
2018-11-21T16:50:25.954Z,60.07
2018-11-21T16:52:55.902Z,71.07
2018-11-21T16:55:26.078Z,60.47
2018-11-21T16:57:55.887Z,61.90
2018-11-21T17:00:26.309Z,66.10
2018-11-21T17:02:57.660Z,62.23
